.
WxDataArchive / Data Records for 2007-07-03
2007-07-02 July 2007 2007-07-04

Data Records for Tuesday, 03 July 2007

Time	Temp	Chill	HIndex	Humid	Dewpt	 Wind 	HiWind	WindDir	Rain 	Barom 
-----	----	-----	------	-----	-----	------	------	-------	-----	----- 
00:00	63.5	63.5	63.5	55	47.0	1	2	68	0.00	30.171 
00:05	63.4	63.4	63.4	55	46.9	1	2	68	0.00	30.169 
00:10	63.4	63.4	63.4	55	46.9	1	3	112	0.00	30.168 
00:15	63.2	63.2	63.2	56	47.2	0	3	112	0.00	30.168 
00:20	63.2	63.2	63.2	56	47.2	0	1	180	0.00	30.169 
00:25	63.1	63.1	63.1	56	47.1	1	2	180	0.00	30.167 
00:30	62.9	62.9	62.9	57	47.4	1	2	180	0.00	30.167 
00:35	62.9	62.9	62.9	57	47.4	1	2	158	0.00	30.165 
00:40	62.7	62.7	62.7	57	47.2	1	2	158	0.00	30.161 
00:45	62.7	62.7	62.7	58	47.7	0	2	158	0.00	30.157 
00:50	62.6	62.6	62.6	58	47.6	0	2	158	0.00	30.158 
00:55	62.6	62.6	62.6	58	47.6	0	2	158	0.00	30.155 
01:00	62.4	62.4	62.4	58	47.4	0	2	158	0.00	30.155 
01:05	62.4	62.4	62.4	59	47.9	0	1	158	0.00	30.154 
01:10	62.3	62.3	62.3	59	47.8	0	0	---	0.00	30.152 
01:15	62.3	62.3	62.3	59	47.8	0	1	158	0.00	30.145 
01:20	62.1	62.1	62.1	60	48.0	0	1	158	0.00	30.141 
01:25	62.0	62.0	62.0	61	48.4	0	2	158	0.00	30.139 
01:30	62.0	62.0	62.0	61	48.4	0	2	158	0.00	30.136 
01:35	61.8	61.8	61.8	61	48.2	0	2	158	0.00	30.134 
01:40	61.8	61.8	61.8	62	48.6	0	2	135	0.00	30.127 
01:45	61.8	61.8	61.8	62	48.6	0	2	135	0.00	30.125 
01:50	61.6	61.6	61.6	62	48.4	0	1	135	0.00	30.123 
01:55	61.6	61.6	61.6	62	48.4	0	2	135	0.00	30.123 
02:00	61.5	61.5	61.5	62	48.4	0	1	135	0.00	30.125 
02:05	61.5	61.5	61.5	62	48.4	0	1	135	0.00	30.126 
02:10	61.5	61.5	61.5	62	48.4	0	0	---	0.00	30.127 
02:15	61.3	61.3	61.3	62	48.2	0	0	---	0.00	30.133 
02:20	61.2	61.2	61.2	61	47.6	0	0	---	0.00	30.133 
02:25	61.2	61.2	61.2	60	47.2	0	1	135	0.00	30.125 
02:30	61.3	61.3	61.3	61	47.7	0	1	135	0.00	30.127 
02:35	61.3	61.3	61.3	60	47.3	0	1	135	0.00	30.127 
02:40	61.5	61.5	61.5	59	47.0	0	1	135	0.00	30.124 
02:45	61.5	61.5	61.5	61	47.9	0	1	135	0.00	30.125 
02:50	61.5	61.5	61.5	60	47.5	0	0	---	0.00	30.127 
02:55	61.5	61.5	61.5	60	47.5	0	0	---	0.00	30.131 
03:00	61.3	61.3	61.3	58	46.4	0	0	---	0.00	30.133 
03:05	61.2	61.2	61.2	60	47.2	0	0	---	0.00	30.130 
03:10	61.2	61.2	61.2	61	47.6	0	0	---	0.00	30.130 
03:15	61.0	61.0	61.0	60	47.0	0	0	---	0.00	30.127 
03:20	61.0	61.0	61.0	61	47.5	0	0	---	0.00	30.130 
03:25	60.9	60.9	60.9	61	47.4	0	0	---	0.00	30.132 
03:30	60.9	60.9	60.9	61	47.4	0	0	---	0.00	30.132 
03:35	60.7	60.7	60.7	60	46.7	0	0	---	0.00	30.135 
03:40	60.7	60.7	60.7	62	47.6	0	0	---	0.00	30.137 
03:45	60.7	60.7	60.7	63	48.0	0	0	---	0.00	30.136 
03:50	60.7	60.7	60.7	64	48.4	0	0	---	0.00	30.138 
03:55	60.5	60.5	60.5	64	48.3	0	0	---	0.00	30.137 
04:00	60.5	60.5	60.5	64	48.3	0	0	---	0.00	30.137 
04:05	60.4	60.4	60.4	65	48.6	0	0	---	0.00	30.139 
04:10	60.2	60.2	60.2	65	48.4	0	0	---	0.00	30.139 
04:15	60.1	60.1	60.1	65	48.3	0	0	---	0.00	30.138 
04:20	59.9	59.9	59.9	66	48.5	0	0	---	0.00	30.137 
04:25	59.8	59.8	59.8	67	48.8	0	0	---	0.00	30.137 
04:30	59.6	59.6	59.6	69	49.4	0	0	---	0.00	30.135 
04:35	59.6	59.6	59.6	69	49.4	0	0	---	0.00	30.134 
04:40	59.5	59.5	59.5	70	49.7	0	0	---	0.00	30.136 
04:45	59.5	59.5	59.5	70	49.7	0	0	---	0.00	30.130 
04:50	59.5	59.5	59.5	71	50.1	0	0	---	0.00	30.131 
04:55	59.3	59.3	59.3	72	50.3	0	0	---	0.00	30.128 
05:00	59.3	59.3	59.3	73	50.6	0	0	---	0.00	30.136 
05:05	59.5	59.5	59.5	73	50.8	0	1	135	0.00	30.127 
05:10	59.6	59.6	59.6	73	50.9	0	1	135	0.00	30.127 
05:15	59.6	59.6	59.6	73	50.9	0	0	---	0.00	30.126 
05:20	59.8	59.8	59.8	72	50.8	0	0	---	0.00	30.127 
05:25	59.6	59.6	59.6	68	49.0	0	0	---	0.00	30.125 
05:30	59.9	59.9	59.9	65	48.1	0	1	135	0.00	30.125 
05:35	60.1	60.1	60.1	65	48.3	0	1	135	0.00	30.125 
05:40	60.2	60.2	60.2	65	48.4	0	1	135	0.00	30.125 
05:45	60.5	60.5	60.5	65	48.7	1	3	135	0.00	30.122 
05:50	60.7	60.7	60.7	65	48.9	0	3	135	0.00	30.123 
05:55	60.9	60.9	60.9	64	48.6	1	2	135	0.00	30.124 
06:00	61.0	61.0	61.0	63	48.3	0	2	135	0.00	30.128 
06:05	61.2	61.2	61.2	64	48.9	0	1	135	0.00	30.131 
06:10	61.5	61.5	61.5	65	49.6	0	2	135	0.00	30.134 
06:15	61.6	61.6	61.6	63	48.9	0	1	135	0.00	30.134 
06:20	61.6	61.6	61.6	62	48.4	0	0	---	0.00	30.138 
06:25	61.8	61.8	61.8	64	49.5	0	0	---	0.00	30.140 
06:30	61.8	61.8	61.8	63	49.1	0	0	---	0.00	30.140 
06:35	61.8	61.8	61.8	62	48.6	0	1	135	0.00	30.138 
06:40	62.0	62.0	62.0	62	48.8	0	1	135	0.00	30.137 
06:45	62.1	62.1	62.1	62	48.9	0	1	135	0.00	30.134 
06:50	62.1	62.1	62.1	62	48.9	0	0	---	0.00	30.136 
06:55	62.3	62.3	62.3	62	49.1	0	1	135	0.00	30.134 
07:00	62.3	62.3	62.3	62	49.1	0	1	135	0.00	30.132 
07:05	62.3	62.3	62.3	61	48.7	0	1	135	0.00	30.133 
07:10	62.7	62.7	62.7	62	49.5	1	2	135	0.00	30.127 
07:15	63.5	63.5	63.5	58	48.5	1	3	68	0.00	30.127 
07:20	64.8	64.8	64.8	57	49.2	1	2	68	0.00	30.125 
07:25	65.8	65.8	65.8	54	48.7	1	3	68	0.00	30.124 
07:30	66.8	66.8	66.8	50	47.6	1	5	68	0.00	30.123 
07:35	67.4	67.4	67.4	50	48.1	1	3	112	0.00	30.122 
07:40	67.6	67.6	67.6	50	48.3	1	2	112	0.00	30.121 
07:45	67.6	67.6	67.6	53	49.9	0	3	112	0.00	30.123 
07:50	67.8	67.8	67.8	52	49.5	1	3	112	0.00	30.126 
07:55	68.1	68.1	68.1	52	49.8	1	2	112	0.00	30.130 
08:00	67.1	67.1	67.1	56	50.9	1	3	112	0.00	30.127 
08:05	67.3	67.3	67.3	55	50.6	0	2	112	0.00	30.134 
08:10	67.3	67.3	67.3	54	50.1	0	2	112	0.00	30.133 
08:15	67.4	67.4	67.4	56	51.1	0	2	112	0.00	30.132 
08:20	67.9	67.9	67.9	55	51.1	0	2	112	0.00	30.128 
08:25	68.6	68.6	68.6	54	51.3	1	2	112	0.00	30.126 
08:30	69.3	69.3	69.3	54	51.9	0	2	112	0.00	30.124 
08:35	70.3	70.3	70.3	53	52.3	0	2	112	0.00	30.124 
08:40	71.3	71.3	71.3	50	51.7	0	2	112	0.00	30.124 
08:45	71.8	71.8	71.8	51	52.7	0	2	180	0.00	30.125 
08:50	72.1	72.1	72.1	49	51.9	1	3	180	0.00	30.125 
08:55	72.7	72.7	72.7	47	51.3	1	3	90	0.00	30.123 
09:00	72.8	72.8	72.8	46	50.8	2	4	90	0.00	30.122 
09:05	72.8	72.8	72.8	47	51.4	1	5	112	0.00	30.123 
09:10	72.3	72.3	72.3	48	51.5	1	3	248	0.00	30.122 
09:15	72.3	72.3	72.3	46	50.3	1	4	248	0.00	30.122 
09:20	72.7	72.7	72.7	49	52.4	1	4	248	0.00	30.121 
09:25	73.0	73.0	73.0	48	52.1	1	3	248	0.00	30.121 
09:30	73.9	73.9	73.9	46	51.8	1	4	90	0.00	30.115 
09:35	74.2	74.2	74.2	46	52.1	2	3	90	0.00	30.111 
09:40	74.4	74.4	74.4	44	51.0	2	5	68	0.00	30.110 
09:45	74.6	74.6	74.6	47	53.0	1	4	90	0.00	30.109 
09:50	75.1	75.1	77.6	45	52.3	1	5	90	0.00	30.107 
09:55	75.4	75.4	77.7	43	51.3	1	3	338	0.00	30.106 
10:00	76.0	76.0	77.9	43	51.9	1	4	90	0.00	30.103 
10:05	76.1	76.1	77.9	40	50.0	1	3	90	0.00	30.104 
10:10	76.5	76.5	78.1	43	52.3	1	4	270	0.00	30.104 
10:15	76.7	76.7	78.1	40	50.5	1	4	248	0.00	30.101 
10:20	76.7	76.7	78.1	39	49.9	1	2	248	0.00	30.101 
10:25	76.7	76.7	78.1	40	50.5	1	4	90	0.00	30.100 
10:30	76.7	76.7	78.1	39	49.9	1	2	90	0.00	30.099 
10:35	77.4	77.4	78.3	37	49.1	1	3	112	0.00	30.098 
10:40	77.9	77.9	78.5	37	49.5	1	4	68	0.00	30.094 
10:45	78.5	78.5	78.8	37	50.0	1	3	90	0.00	30.094 
10:50	78.5	78.5	78.7	36	49.3	1	4	248	0.00	30.089 
10:55	78.6	78.6	78.9	37	50.1	1	4	338	0.00	30.088 
11:00	78.8	78.8	78.8	35	48.8	2	5	90	0.00	30.087 
11:05	78.6	78.6	79.0	39	51.5	1	3	248	0.00	30.089 
11:10	79.0	79.0	79.0	35	49.0	1	3	90	0.00	30.091 
11:15	79.4	79.4	79.2	35	49.3	1	3	112	0.00	30.091 
11:20	79.8	79.8	79.9	41	54.0	1	3	112	0.00	30.095 
11:25	79.8	79.8	79.6	37	51.2	1	4	112	0.00	30.093 
11:30	79.6	79.6	79.4	37	51.0	1	4	90	0.00	30.093 
11:35	79.6	79.6	79.2	33	47.9	1	3	90	0.00	30.091 
11:40	79.9	79.9	79.8	39	52.7	1	3	90	0.00	30.089 
11:45	80.3	80.3	79.7	34	49.3	1	6	225	0.00	30.088 
11:50	80.5	80.5	79.9	35	50.3	1	4	68	0.00	30.085 
11:55	80.7	80.7	80.2	37	52.0	1	4	68	0.00	30.085 
12:00	80.7	80.7	79.8	33	48.9	1	3	202	0.00	30.084 
12:05	81.1	81.1	80.4	37	52.3	1	3	90	0.00	30.083 
12:10	81.1	81.1	80.3	35	50.8	1	3	248	0.00	30.079 
12:15	80.9	80.9	80.2	36	51.4	2	4	90	0.00	30.079 
12:20	80.9	80.9	80.5	39	53.6	1	3	225	0.00	30.078 
12:25	81.2	81.2	80.2	33	49.3	1	5	248	0.00	30.074 
12:30	80.7	80.7	79.8	33	48.9	1	5	90	0.00	30.074 
12:35	80.7	80.7	80.2	37	52.0	1	4	270	0.00	30.072 
12:40	81.2	81.2	80.3	35	50.9	1	3	248	0.00	30.071 
12:45	81.4	81.4	80.4	34	50.3	1	5	90	0.00	30.069 
12:50	81.1	81.1	80.1	33	49.2	2	7	248	0.00	30.071 
12:55	80.7	80.7	80.1	36	51.2	2	5	90	0.00	30.071 
13:00	80.3	80.3	80.0	38	52.4	2	5	90	0.00	30.066 
13:05	80.7	80.7	80.2	37	52.0	2	5	90	0.00	30.065 
13:10	80.7	80.7	80.1	36	51.2	2	6	112	0.00	30.061 
13:15	81.2	81.2	80.2	33	49.3	1	4	135	0.00	30.061 
13:20	81.6	81.6	80.8	37	52.8	2	5	90	0.00	30.062 
13:25	81.6	81.6	80.5	33	49.7	2	6	248	0.00	30.063 
13:30	81.6	81.6	80.1	29	46.2	1	3	248	0.00	30.060 
13:35	81.8	81.8	80.5	32	49.0	1	4	112	0.00	30.055 
13:40	81.6	81.6	80.1	29	46.2	1	3	90	0.00	30.055 
13:45	81.4	81.4	80.2	32	48.7	2	6	90	0.00	30.054 
13:50	81.1	81.1	80.3	35	50.8	1	4	90	0.00	30.054 
13:55	77.9	77.9	79.1	49	57.2	2	5	90	0.00	30.047 
14:00	74.2	74.2	74.2	53	56.0	2	4	90	0.00	30.053 
14:05	73.3	73.3	73.3	48	52.4	1	3	270	0.00	30.054 
14:10	73.7	73.7	73.7	49	53.3	1	5	270	0.00	30.052 
14:15	74.4	74.4	74.4	50	54.5	1	4	270	0.00	30.054 
14:20	73.9	73.9	73.9	45	51.2	1	3	292	0.00	30.054 
14:25	72.7	72.7	72.7	50	53.0	2	4	45	0.00	30.048 
14:30	73.2	73.2	73.2	46	51.2	2	6	112	0.00	30.046 
14:35	74.2	74.2	74.2	46	52.1	3	6	90	0.00	30.044 
14:40	74.9	74.9	74.9	46	52.7	2	6	90	0.00	30.040 
14:45	76.3	76.3	77.9	40	50.2	2	5	90	0.00	30.038 
14:50	78.1	78.1	78.7	38	50.4	1	5	90	0.00	30.039 
14:55	79.6	79.6	79.3	35	49.5	1	5	68	0.00	30.034 
15:00	80.9	80.9	80.0	33	49.1	2	7	248	0.00	30.038 
15:05	81.8	81.8	80.7	34	50.7	2	4	248	0.00	30.036 
15:10	81.8	81.8	80.6	33	49.9	1	2	270	0.00	30.033 
15:15	82.2	82.2	81.1	35	51.8	1	3	0	0.00	30.026 
15:20	82.8	82.8	81.2	32	49.9	1	3	45	0.00	30.024 
15:25	83.2	83.2	81.5	31	49.4	2	7	90	0.00	30.023 
15:30	83.6	83.6	81.8	31	49.7	1	5	68	0.00	30.023 
15:35	83.8	83.8	81.9	31	49.9	2	6	45	0.00	30.023 
15:40	83.6	83.6	81.5	28	47.0	1	4	90	0.00	30.019 
15:45	83.6	83.6	81.4	27	46.1	2	6	248	0.00	30.021 
15:50	83.6	83.6	81.4	27	46.1	2	5	248	0.00	30.020 
15:55	83.8	83.8	81.7	29	48.1	2	7	90	0.00	30.016 
16:00	84.0	84.0	81.7	27	46.4	2	4	248	0.00	30.019 
16:05	84.1	84.1	81.9	28	47.4	1	3	135	0.00	30.017 
16:10	84.1	84.1	81.8	27	46.5	2	6	248	0.00	30.017 
16:15	84.0	84.0	81.7	27	46.4	1	4	248	0.00	30.015 
16:20	84.0	84.0	81.7	27	46.4	1	5	248	0.00	30.010 
16:25	84.1	84.1	81.8	27	46.5	2	6	90	0.00	30.013 
16:30	84.3	84.3	82.0	27	46.6	1	5	225	0.00	30.013 
16:35	84.3	84.3	82.0	27	46.6	2	4	270	0.00	30.011 
16:40	84.1	84.1	81.8	27	46.5	1	4	248	0.00	30.009 
16:45	84.1	84.1	81.7	26	45.5	1	6	112	0.00	30.008 
16:50	84.3	84.3	81.9	26	45.7	1	4	112	0.00	30.008 
16:55	84.0	84.0	81.8	28	47.4	1	5	112	0.00	30.008 
17:00	84.0	84.0	82.0	30	49.2	1	3	292	0.00	30.009 
17:05	83.8	83.8	81.7	29	48.1	1	4	270	0.00	30.007 
17:10	83.6	83.6	81.4	27	46.1	1	3	90	0.00	30.007 
17:15	83.6	83.6	81.6	29	48.0	1	3	90	0.00	30.006 
17:20	83.6	83.6	81.5	28	47.0	0	3	248	0.00	30.008 
17:25	83.6	83.6	81.4	27	46.1	1	4	248	0.00	30.006 
17:30	83.6	83.6	81.3	26	45.1	1	3	270	0.00	30.007 
17:35	83.6	83.6	81.4	27	46.1	1	4	225	0.00	30.006 
17:40	83.2	83.2	81.1	27	45.7	1	4	248	0.00	30.005 
17:45	83.2	83.2	81.2	28	46.7	1	5	68	0.00	30.001 
17:50	82.8	82.8	80.9	28	46.3	1	3	248	0.00	30.003 
17:55	82.6	82.6	80.7	27	45.2	1	4	248	0.00	30.005 
18:00	82.4	82.4	80.6	28	46.0	1	5	248	0.00	30.008 
18:05	82.4	82.4	80.6	28	46.0	1	3	248	0.00	30.003 
18:10	82.2	82.2	80.4	27	44.9	1	3	225	0.00	30.001 
18:15	82.2	82.2	80.5	29	46.8	0	2	248	0.00	29.995 
18:20	82.0	82.0	80.5	30	47.5	0	2	270	0.00	29.995 
18:25	81.8	81.8	80.3	29	46.4	0	2	248	0.00	29.994 
18:30	81.8	81.8	80.3	30	47.3	0	3	248	0.00	29.993 
18:35	81.6	81.6	80.2	30	47.1	0	2	248	0.00	29.990 
18:40	81.6	81.6	80.3	31	48.0	0	2	248	0.00	29.990 
18:45	81.4	81.4	80.0	29	46.1	1	4	248	0.00	29.993 
18:50	81.4	81.4	80.0	29	46.1	1	4	270	0.00	29.993 
18:55	81.2	81.2	79.9	29	45.9	0	2	270	0.00	29.994 
19:00	81.1	81.1	79.7	28	44.9	0	2	270	0.00	29.994 
19:05	80.9	80.9	79.7	30	46.5	0	2	248	0.00	29.989 
19:10	80.5	80.5	79.4	29	45.3	0	2	248	0.00	29.988 
19:15	80.3	80.3	79.4	30	46.0	0	2	248	0.00	29.987 
19:20	80.1	80.1	79.3	31	46.7	0	1	225	0.00	29.988 
19:25	79.8	79.8	79.1	31	46.5	1	4	248	0.00	29.988 
19:30	79.6	79.6	79.1	32	47.1	0	2	248	0.00	29.979 
19:35	79.4	79.4	79.0	33	47.8	0	2	248	0.00	29.975 
19:40	78.8	78.8	78.7	33	47.2	0	1	248	0.00	29.975 
19:45	78.5	78.5	78.6	34	47.8	0	1	248	0.00	29.973 
19:50	78.1	78.1	78.5	35	48.2	0	1	248	0.00	29.972 
19:55	77.7	77.7	78.3	35	47.8	0	2	248	0.00	29.970 
20:00	77.4	77.4	78.2	36	48.3	0	0	---	0.00	29.968 
20:05	77.0	77.0	78.1	37	48.7	0	1	248	0.00	29.962 
20:10	76.7	76.7	78.0	38	49.2	0	1	248	0.00	29.963 
20:15	76.5	76.5	78.0	39	49.7	0	2	248	0.00	29.956 
20:20	76.1	76.1	77.8	39	49.3	0	1	248	0.00	29.957 
20:25	75.8	75.8	77.7	40	49.7	0	1	248	0.00	29.956 
20:30	75.4	75.4	77.6	41	50.0	0	1	248	0.00	29.952 
20:35	75.1	75.1	77.6	42	50.4	0	1	248	0.00	29.951 
20:40	74.6	74.6	74.6	43	50.6	0	0	---	0.00	29.947 
20:45	74.0	74.0	74.0	44	50.7	0	0	---	0.00	29.952 
20:50	73.5	73.5	73.5	44	50.2	0	0	---	0.00	29.951 
20:55	73.2	73.2	73.2	46	51.2	0	0	---	0.00	29.954 
21:00	72.5	72.5	72.5	46	50.5	0	0	---	0.00	29.956 
21:05	72.0	72.0	72.0	47	50.7	0	0	---	0.00	29.953 
21:10	71.5	71.5	71.5	50	51.9	0	0	---	0.00	29.954 
21:15	71.1	71.1	71.1	50	51.5	0	0	---	0.00	29.950 
21:20	70.8	70.8	70.8	51	51.8	0	0	---	0.00	29.951 
21:25	70.3	70.3	70.3	52	51.8	0	0	---	0.00	29.955 
21:30	69.9	69.9	69.9	53	52.0	0	0	---	0.00	29.955 
21:35	69.6	69.6	69.6	55	52.7	0	0	---	0.00	29.957 
21:40	69.1	69.1	69.1	56	52.7	0	0	---	0.00	29.953 
21:45	68.8	68.8	68.8	57	52.9	0	0	---	0.00	29.950 
21:50	68.6	68.6	68.6	58	53.2	0	0	---	0.00	29.948 
21:55	68.6	68.6	68.6	58	53.2	0	0	---	0.00	29.947 
22:00	68.6	68.6	68.6	58	53.2	0	0	---	0.00	29.945 
22:05	68.6	68.6	68.6	59	53.7	0	0	---	0.00	29.942 
22:10	68.6	68.6	68.6	58	53.2	0	1	248	0.00	29.943 
22:15	68.8	68.8	68.8	58	53.4	0	1	248	0.00	29.942 
22:20	68.9	68.9	68.9	58	53.5	0	0	---	0.00	29.945 
22:25	68.9	68.9	68.9	58	53.5	0	0	---	0.00	29.944 
22:30	68.8	68.8	68.8	58	53.4	0	1	248	0.00	29.945 
22:35	68.8	68.8	68.8	58	53.4	0	1	248	0.00	29.946 
22:40	68.6	68.6	68.6	58	53.2	0	0	---	0.00	29.944 
22:45	68.6	68.6	68.6	59	53.7	0	0	---	0.00	29.943 
22:50	68.3	68.3	68.3	59	53.4	0	0	---	0.00	29.946 
22:55	68.1	68.1	68.1	59	53.2	0	0	---	0.00	29.943 
23:00	67.9	67.9	67.9	60	53.5	0	0	---	0.00	29.943 
23:05	67.8	67.8	67.8	60	53.4	0	0	---	0.00	29.941 
23:10	67.6	67.6	67.6	61	53.7	0	0	---	0.00	29.942 
23:15	67.6	67.6	67.6	62	54.1	0	0	---	0.00	29.948 
23:20	67.4	67.4	67.4	61	53.5	0	0	---	0.00	29.945 
23:25	67.3	67.3	67.3	61	53.4	0	0	---	0.00	29.943 
23:30	67.1	67.1	67.1	61	53.2	0	0	---	0.00	29.941 
23:35	67.1	67.1	67.1	62	53.6	0	0	---	0.00	29.939 
23:40	66.9	66.9	66.9	63	53.9	0	0	---	0.00	29.939 
23:45	66.9	66.9	66.9	62	53.4	0	0	---	0.00	29.934 
23:50	66.9	66.9	66.9	63	53.9	0	1	248	0.00	29.936 
23:55	67.1	67.1	67.1	62	53.6	0	1	248	0.00	29.936 

CoCoRaHS
IN-AL-39
A2 Web Hosting
Creative Commons License
GoDaddy
Look for:

loaded 2017-12-12 14:33:47 • last modified 2010-11-18 10:43:29
Privacy PolicyDisclaimer
• wx.awcolley.com is powered by PmWiki v.2002016 •
• all content (unless otherwise noted) © 2017 A W Colley